sensor_id;sensor_type;location;lat;lon;timestamp;P1;durP1;ratioP1;P2;durP2;ratioP2
7406;SDS011;3745;56.964;24.128;2023-05-07T00:00:21;5.00;;;3.35;;
7406;SDS011;3745;56.964;24.128;2023-05-07T00:02:47;4.53;;;3.22;;
7406;SDS011;3745;56.964;24.128;2023-05-07T00:05:13;5.43;;;3.03;;
7406;SDS011;3745;56.964;24.128;2023-05-07T00:07:39;3.72;;;3.33;;
7406;SDS011;3745;56.964;24.128;2023-05-07T00:10:05;3.75;;;3.35;;
7406;SDS011;3745;56.964;24.128;2023-05-07T00:12:32;3.35;;;3.08;;
7406;SDS011;3745;56.964;24.128;2023-05-07T00:14:59;11.38;;;3.70;;
7406;SDS011;3745;56.964;24.128;2023-05-07T00:17:26;4.20;;;3.40;;
7406;SDS011;3745;56.964;24.128;2023-05-07T00:19:51;3.83;;;3.35;;
7406;SDS011;3745;56.964;24.128;2023-05-07T00:22:17;8.57;;;3.33;;
7406;SDS011;3745;56.964;24.128;2023-05-07T00:24:42;3.65;;;3.00;;
7406;SDS011;3745;56.964;24.128;2023-05-07T00:27:08;5.10;;;3.10;;
7406;SDS011;3745;56.964;24.128;2023-05-07T00:29:34;5.90;;;3.40;;
7406;SDS011;3745;56.964;24.128;2023-05-07T00:32:01;4.30;;;3.30;;
7406;SDS011;3745;56.964;24.128;2023-05-07T00:34:27;4.13;;;3.35;;
7406;SDS011;3745;56.964;24.128;2023-05-07T00:36:52;3.05;;;2.80;;
7406;SDS011;3745;56.964;24.128;2023-05-07T00:39:18;5.30;;;3.45;;
7406;SDS011;3745;56.964;24.128;2023-05-07T00:41:44;3.50;;;3.10;;
7406;SDS011;3745;56.964;24.128;2023-05-07T00:44:10;4.72;;;3.10;;
7406;SDS011;3745;56.964;24.128;2023-05-07T00:46:35;4.15;;;2.83;;
7406;SDS011;3745;56.964;24.128;2023-05-07T00:49:01;4.68;;;3.13;;
7406;SDS011;3745;56.964;24.128;2023-05-07T00:51:27;3.20;;;2.90;;
7406;SDS011;3745;56.964;24.128;2023-05-07T00:53:53;3.95;;;3.58;;
7406;SDS011;3745;56.964;24.128;2023-05-07T00:56:22;7.10;;;4.63;;
7406;SDS011;3745;56.964;24.128;2023-05-07T00:58:49;5.60;;;3.30;;
7406;SDS011;3745;56.964;24.128;2023-05-07T01:01:14;3.83;;;3.17;;
7406;SDS011;3745;56.964;24.128;2023-05-07T01:03:43;5.43;;;3.45;;
7406;SDS011;3745;56.964;24.128;2023-05-07T01:06:11;9.93;;;3.55;;
7406;SDS011;3745;56.964;24.128;2023-05-07T01:08:38;5.80;;;3.08;;
7406;SDS011;3745;56.964;24.128;2023-05-07T01:11:06;3.30;;;3.00;;
7406;SDS011;3745;56.964;24.128;2023-05-07T01:13:33;3.28;;;3.08;;
7406;SDS011;3745;56.964;24.128;2023-05-07T01:16:00;4.25;;;3.45;;
7406;SDS011;3745;56.964;24.128;2023-05-07T01:18:26;6.03;;;3.38;;
7406;SDS011;3745;56.964;24.128;2023-05-07T01:20:52;6.63;;;3.22;;
7406;SDS011;3745;56.964;24.128;2023-05-07T01:23:17;4.82;;;3.80;;
7406;SDS011;3745;56.964;24.128;2023-05-07T01:25:50;4.95;;;3.47;;
7406;SDS011;3745;56.964;24.128;2023-05-07T01:28:19;7.50;;;3.97;;
7406;SDS011;3745;56.964;24.128;2023-05-07T01:31:02;5.28;;;3.95;;
7406;SDS011;3745;56.964;24.128;2023-05-07T01:33:29;3.28;;;2.97;;
7406;SDS011;3745;56.964;24.128;2023-05-07T01:35:58;3.38;;;3.08;;
7406;SDS011;3745;56.964;24.128;2023-05-07T01:38:27;3.85;;;3.55;;
7406;SDS011;3745;56.964;24.128;2023-05-07T01:40:53;3.85;;;3.47;;
7406;SDS011;3745;56.964;24.128;2023-05-07T01:43:19;3.63;;;3.30;;
7406;SDS011;3745;56.964;24.128;2023-05-07T01:45:45;3.85;;;3.40;;
7406;SDS011;3745;56.964;24.128;2023-05-07T01:48:14;4.80;;;3.30;;
7406;SDS011;3745;56.964;24.128;2023-05-07T01:50:40;3.25;;;2.90;;
7406;SDS011;3745;56.964;24.128;2023-05-07T01:53:07;5.47;;;3.20;;
7406;SDS011;3745;56.964;24.128;2023-05-07T01:55:33;4.65;;;3.47;;
7406;SDS011;3745;56.964;24.128;2023-05-07T01:57:59;3.85;;;3.45;;
7406;SDS011;3745;56.964;24.128;2023-05-07T02:00:25;4.28;;;3.58;;
7406;SDS011;3745;56.964;24.128;2023-05-07T02:02:50;5.97;;;3.33;;
7406;SDS011;3745;56.964;24.128;2023-05-07T02:05:17;4.13;;;2.88;;
7406;SDS011;3745;56.964;24.128;2023-05-07T02:07:43;4.50;;;3.40;;
7406;SDS011;3745;56.964;24.128;2023-05-07T02:10:09;9.43;;;3.40;;
7406;SDS011;3745;56.964;24.128;2023-05-07T02:12:34;3.60;;;3.30;;
7406;SDS011;3745;56.964;24.128;2023-05-07T02:15:00;4.35;;;3.28;;
7406;SDS011;3745;56.964;24.128;2023-05-07T02:17:26;4.53;;;3.17;;
7406;SDS011;3745;56.964;24.128;2023-05-07T02:19:52;3.47;;;3.17;;
7406;SDS011;3745;56.964;24.128;2023-05-07T02:22:18;4.63;;;3.40;;
7406;SDS011;3745;56.964;24.128;2023-05-07T02:24:44;6.78;;;3.25;;
7406;SDS011;3745;56.964;24.128;2023-05-07T02:27:09;3.47;;;3.17;;
7406;SDS011;3745;56.964;24.128;2023-05-07T02:29:35;9.93;;;3.40;;
7406;SDS011;3745;56.964;24.128;2023-05-07T02:32:01;5.00;;;3.40;;
7406;SDS011;3745;56.964;24.128;2023-05-07T02:34:26;3.55;;;3.05;;
7406;SDS011;3745;56.964;24.128;2023-05-07T02:36:52;5.10;;;3.13;;
7406;SDS011;3745;56.964;24.128;2023-05-07T02:39:18;3.70;;;3.40;;
7406;SDS011;3745;56.964;24.128;2023-05-07T02:41:43;3.17;;;2.97;;
7406;SDS011;3745;56.964;24.128;2023-05-07T02:44:09;5.32;;;3.45;;
7406;SDS011;3745;56.964;24.128;2023-05-07T02:46:34;5.82;;;3.50;;
7406;SDS011;3745;56.964;24.128;2023-05-07T02:49:00;4.03;;;3.72;;
7406;SDS011;3745;56.964;24.128;2023-05-07T02:51:25;5.07;;;3.60;;
7406;SDS011;3745;56.964;24.128;2023-05-07T02:53:52;9.82;;;3.70;;
7406;SDS011;3745;56.964;24.128;2023-05-07T02:56:17;3.78;;;3.13;;
7406;SDS011;3745;56.964;24.128;2023-05-07T02:58:43;3.47;;;3.10;;
7406;SDS011;3745;56.964;24.128;2023-05-07T03:01:08;3.53;;;3.28;;
7406;SDS011;3745;56.964;24.128;2023-05-07T03:03:34;3.63;;;3.35;;
7406;SDS011;3745;56.964;24.128;2023-05-07T03:06:00;3.60;;;3.30;;
7406;SDS011;3745;56.964;24.128;2023-05-07T03:08:26;3.53;;;3.15;;
7406;SDS011;3745;56.964;24.128;2023-05-07T03:10:52;3.05;;;2.83;;
7406;SDS011;3745;56.964;24.128;2023-05-07T03:13:18;2.95;;;2.75;;
7406;SDS011;3745;56.964;24.128;2023-05-07T03:15:43;4.25;;;2.75;;
7406;SDS011;3745;56.964;24.128;2023-05-07T03:18:09;4.25;;;2.47;;
7406;SDS011;3745;56.964;24.128;2023-05-07T03:20:35;3.03;;;2.63;;
7406;SDS011;3745;56.964;24.128;2023-05-07T03:23:01;4.43;;;3.03;;
7406;SDS011;3745;56.964;24.128;2023-05-07T03:25:27;3.47;;;3.10;;
7406;SDS011;3745;56.964;24.128;2023-05-07T03:27:55;3.35;;;2.63;;
7406;SDS011;3745;56.964;24.128;2023-05-07T03:30:23;3.65;;;3.03;;
7406;SDS011;3745;56.964;24.128;2023-05-07T03:32:49;3.25;;;2.80;;
7406;SDS011;3745;56.964;24.128;2023-05-07T03:35:15;3.25;;;2.95;;
7406;SDS011;3745;56.964;24.128;2023-05-07T03:37:40;4.20;;;3.00;;
7406;SDS011;3745;56.964;24.128;2023-05-07T03:40:06;3.55;;;3.25;;
7406;SDS011;3745;56.964;24.128;2023-05-07T03:42:33;3.53;;;3.22;;
7406;SDS011;3745;56.964;24.128;2023-05-07T03:44:58;4.72;;;3.78;;
7406;SDS011;3745;56.964;24.128;2023-05-07T03:47:24;5.50;;;2.85;;
7406;SDS011;3745;56.964;24.128;2023-05-07T03:49:50;4.72;;;3.00;;
7406;SDS011;3745;56.964;24.128;2023-05-07T03:52:17;3.33;;;2.97;;
7406;SDS011;3745;56.964;24.128;2023-05-07T03:54:48;5.95;;;3.35;;
7406;SDS011;3745;56.964;24.128;2023-05-07T03:57:13;3.13;;;2.90;;
7406;SDS011;3745;56.964;24.128;2023-05-07T03:59:39;3.45;;;3.25;;
7406;SDS011;3745;56.964;24.128;2023-05-07T04:02:05;6.18;;;3.30;;
7406;SDS011;3745;56.964;24.128;2023-05-07T04:04:30;5.03;;;3.30;;
7406;SDS011;3745;56.964;24.128;2023-05-07T04:06:58;6.30;;;3.47;;
7406;SDS011;3745;56.964;24.128;2023-05-07T04:09:24;4.43;;;4.00;;
7406;SDS011;3745;56.964;24.128;2023-05-07T04:11:50;3.67;;;3.38;;
7406;SDS011;3745;56.964;24.128;2023-05-07T04:14:15;4.90;;;3.40;;
7406;SDS011;3745;56.964;24.128;2023-05-07T04:16:41;4.00;;;3.35;;
7406;SDS011;3745;56.964;24.128;2023-05-07T04:19:06;5.22;;;3.30;;
7406;SDS011;3745;56.964;24.128;2023-05-07T04:21:32;5.78;;;3.50;;
7406;SDS011;3745;56.964;24.128;2023-05-07T04:23:58;3.80;;;3.40;;
7406;SDS011;3745;56.964;24.128;2023-05-07T04:26:23;7.05;;;3.30;;
7406;SDS011;3745;56.964;24.128;2023-05-07T04:28:49;5.97;;;4.15;;
7406;SDS011;3745;56.964;24.128;2023-05-07T04:31:15;3.90;;;3.50;;
7406;SDS011;3745;56.964;24.128;2023-05-07T04:33:41;12.73;;;3.95;;
7406;SDS011;3745;56.964;24.128;2023-05-07T04:36:07;5.13;;;3.42;;
7406;SDS011;3745;56.964;24.128;2023-05-07T04:38:33;4.28;;;3.55;;
7406;SDS011;3745;56.964;24.128;2023-05-07T04:41:05;5.85;;;3.97;;
7406;SDS011;3745;56.964;24.128;2023-05-07T04:43:31;7.38;;;4.28;;
7406;SDS011;3745;56.964;24.128;2023-05-07T04:45:57;7.10;;;4.10;;
7406;SDS011;3745;56.964;24.128;2023-05-07T04:48:23;12.95;;;4.30;;
7406;SDS011;3745;56.964;24.128;2023-05-07T04:50:49;5.75;;;4.20;;
7406;SDS011;3745;56.964;24.128;2023-05-07T04:53:15;9.93;;;4.40;;
7406;SDS011;3745;56.964;24.128;2023-05-07T04:55:41;4.38;;;3.97;;
7406;SDS011;3745;56.964;24.128;2023-05-07T04:58:07;4.47;;;3.85;;
7406;SDS011;3745;56.964;24.128;2023-05-07T05:00:33;5.90;;;4.38;;
7406;SDS011;3745;56.964;24.128;2023-05-07T05:02:58;4.35;;;3.95;;
7406;SDS011;3745;56.964;24.128;2023-05-07T05:05:24;5.43;;;4.43;;
7406;SDS011;3745;56.964;24.128;2023-05-07T05:07:50;8.75;;;4.82;;
7406;SDS011;3745;56.964;24.128;2023-05-07T05:10:16;4.65;;;4.25;;
7406;SDS011;3745;56.964;24.128;2023-05-07T05:12:42;4.90;;;4.25;;
7406;SDS011;3745;56.964;24.128;2023-05-07T05:15:08;7.85;;;3.97;;
7406;SDS011;3745;56.964;24.128;2023-05-07T05:17:35;4.78;;;4.32;;
7406;SDS011;3745;56.964;24.128;2023-05-07T05:20:01;6.07;;;4.40;;
7406;SDS011;3745;56.964;24.128;2023-05-07T05:22:27;9.32;;;5.15;;
7406;SDS011;3745;56.964;24.128;2023-05-07T05:24:54;6.43;;;5.05;;
7406;SDS011;3745;56.964;24.128;2023-05-07T05:27:20;8.40;;;4.80;;
7406;SDS011;3745;56.964;24.128;2023-05-07T05:29:46;4.95;;;4.10;;
7406;SDS011;3745;56.964;24.128;2023-05-07T05:32:11;10.48;;;4.10;;
7406;SDS011;3745;56.964;24.128;2023-05-07T05:34:37;6.68;;;4.55;;
7406;SDS011;3745;56.964;24.128;2023-05-07T05:37:02;6.93;;;4.20;;
7406;SDS011;3745;56.964;24.128;2023-05-07T05:39:28;8.77;;;4.85;;
7406;SDS011;3745;56.964;24.128;2023-05-07T05:41:54;7.28;;;4.25;;
7406;SDS011;3745;56.964;24.128;2023-05-07T05:44:19;6.80;;;3.63;;
7406;SDS011;3745;56.964;24.128;2023-05-07T05:46:45;7.22;;;4.10;;
7406;SDS011;3745;56.964;24.128;2023-05-07T05:49:11;6.88;;;4.40;;
7406;SDS011;3745;56.964;24.128;2023-05-07T05:51:36;6.47;;;3.92;;
7406;SDS011;3745;56.964;24.128;2023-05-07T05:54:02;4.13;;;3.70;;
7406;SDS011;3745;56.964;24.128;2023-05-07T05:56:27;3.85;;;3.55;;
7406;SDS011;3745;56.964;24.128;2023-05-07T05:58:53;6.15;;;4.43;;
7406;SDS011;3745;56.964;24.128;2023-05-07T06:01:18;8.88;;;4.00;;
7406;SDS011;3745;56.964;24.128;2023-05-07T06:03:44;4.45;;;3.83;;
7406;SDS011;3745;56.964;24.128;2023-05-07T06:06:10;3.45;;;3.25;;
7406;SDS011;3745;56.964;24.128;2023-05-07T06:08:35;6.53;;;4.03;;
7406;SDS011;3745;56.964;24.128;2023-05-07T06:11:01;5.82;;;4.30;;
7406;SDS011;3745;56.964;24.128;2023-05-07T06:13:27;5.72;;;3.60;;
7406;SDS011;3745;56.964;24.128;2023-05-07T06:15:53;5.15;;;3.67;;
7406;SDS011;3745;56.964;24.128;2023-05-07T06:18:19;4.00;;;3.67;;
7406;SDS011;3745;56.964;24.128;2023-05-07T06:20:44;4.40;;;3.33;;
7406;SDS011;3745;56.964;24.128;2023-05-07T06:23:10;8.25;;;4.20;;
7406;SDS011;3745;56.964;24.128;2023-05-07T06:25:36;5.05;;;3.60;;
7406;SDS011;3745;56.964;24.128;2023-05-07T06:28:01;4.70;;;3.28;;
7406;SDS011;3745;56.964;24.128;2023-05-07T06:30:27;4.72;;;3.10;;
7406;SDS011;3745;56.964;24.128;2023-05-07T06:32:52;6.45;;;3.38;;
7406;SDS011;3745;56.964;24.128;2023-05-07T06:35:18;3.35;;;3.05;;
7406;SDS011;3745;56.964;24.128;2023-05-07T06:37:44;6.93;;;3.45;;
7406;SDS011;3745;56.964;24.128;2023-05-07T06:40:09;4.22;;;3.08;;
7406;SDS011;3745;56.964;24.128;2023-05-07T06:42:36;3.40;;;3.10;;
7406;SDS011;3745;56.964;24.128;2023-05-07T06:45:02;3.60;;;3.30;;
7406;SDS011;3745;56.964;24.128;2023-05-07T06:47:28;3.45;;;3.20;;
7406;SDS011;3745;56.964;24.128;2023-05-07T06:49:53;2.40;;;2.30;;
7406;SDS011;3745;56.964;24.128;2023-05-07T06:52:19;2.65;;;2.45;;
7406;SDS011;3745;56.964;24.128;2023-05-07T06:54:48;2.70;;;2.50;;
7406;SDS011;3745;56.964;24.128;2023-05-07T06:57:13;5.40;;;2.88;;
7406;SDS011;3745;56.964;24.128;2023-05-07T06:59:39;3.45;;;2.53;;
7406;SDS011;3745;56.964;24.128;2023-05-07T07:02:05;2.67;;;2.33;;
7406;SDS011;3745;56.964;24.128;2023-05-07T07:04:34;2.60;;;2.33;;
7406;SDS011;3745;56.964;24.128;2023-05-07T07:07:23;2.47;;;2.28;;
7406;SDS011;3745;56.964;24.128;2023-05-07T07:09:49;2.60;;;2.40;;
7406;SDS011;3745;56.964;24.128;2023-05-07T07:12:15;2.58;;;2.40;;
7406;SDS011;3745;56.964;24.128;2023-05-07T07:14:41;2.65;;;2.20;;
7406;SDS011;3745;56.964;24.128;2023-05-07T07:17:06;3.95;;;2.33;;
7406;SDS011;3745;56.964;24.128;2023-05-07T07:19:32;3.85;;;2.10;;
7406;SDS011;3745;56.964;24.128;2023-05-07T07:21:58;6.97;;;2.22;;
7406;SDS011;3745;56.964;24.128;2023-05-07T07:24:23;2.00;;;1.90;;
7406;SDS011;3745;56.964;24.128;2023-05-07T07:26:49;2.28;;;2.17;;
7406;SDS011;3745;56.964;24.128;2023-05-07T07:29:15;2.00;;;1.90;;
7406;SDS011;3745;56.964;24.128;2023-05-07T07:31:40;1.80;;;1.70;;
7406;SDS011;3745;56.964;24.128;2023-05-07T07:34:06;2.80;;;2.00;;
7406;SDS011;3745;56.964;24.128;2023-05-07T07:36:32;2.10;;;2.00;;
7406;SDS011;3745;56.964;24.128;2023-05-07T07:38:57;2.10;;;2.00;;
7406;SDS011;3745;56.964;24.128;2023-05-07T07:41:23;1.75;;;1.65;;
7406;SDS011;3745;56.964;24.128;2023-05-07T07:43:48;2.20;;;2.10;;
7406;SDS011;3745;56.964;24.128;2023-05-07T07:46:14;1.95;;;1.85;;
7406;SDS011;3745;56.964;24.128;2023-05-07T07:48:40;2.00;;;1.90;;
7406;SDS011;3745;56.964;24.128;2023-05-07T07:51:05;2.20;;;2.10;;
7406;SDS011;3745;56.964;24.128;2023-05-07T07:53:31;2.38;;;1.73;;
7406;SDS011;3745;56.964;24.128;2023-05-07T07:55:57;2.10;;;2.00;;
7406;SDS011;3745;56.964;24.128;2023-05-07T07:58:22;2.58;;;1.73;;
7406;SDS011;3745;56.964;24.128;2023-05-07T08:00:49;1.73;;;1.63;;
7406;SDS011;3745;56.964;24.128;2023-05-07T08:03:16;2.28;;;2.17;;
7406;SDS011;3745;56.964;24.128;2023-05-07T08:05:42;3.17;;;2.00;;
7406;SDS011;3745;56.964;24.128;2023-05-07T08:08:08;2.33;;;2.22;;
7406;SDS011;3745;56.964;24.128;2023-05-07T08:10:34;2.85;;;1.80;;
7406;SDS011;3745;56.964;24.128;2023-05-07T08:13:03;2.13;;;1.75;;
7406;SDS011;3745;56.964;24.128;2023-05-07T08:15:29;2.28;;;2.08;;
7406;SDS011;3745;56.964;24.128;2023-05-07T08:17:55;2.10;;;1.95;;
7406;SDS011;3745;56.964;24.128;2023-05-07T08:20:22;1.80;;;1.73;;
7406;SDS011;3745;56.964;24.128;2023-05-07T08:22:48;2.47;;;1.85;;
7406;SDS011;3745;56.964;24.128;2023-05-07T08:25:14;1.98;;;1.73;;
7406;SDS011;3745;56.964;24.128;2023-05-07T08:27:42;2.08;;;1.90;;
7406;SDS011;3745;56.964;24.128;2023-05-07T08:30:10;1.80;;;1.70;;
7406;SDS011;3745;56.964;24.128;2023-05-07T08:32:36;2.45;;;1.90;;
7406;SDS011;3745;56.964;24.128;2023-05-07T08:35:02;1.85;;;1.75;;
7406;SDS011;3745;56.964;24.128;2023-05-07T08:37:28;3.05;;;1.80;;
7406;SDS011;3745;56.964;24.128;2023-05-07T08:39:54;3.70;;;1.70;;
7406;SDS011;3745;56.964;24.128;2023-05-07T08:42:20;1.95;;;1.85;;
7406;SDS011;3745;56.964;24.128;2023-05-07T08:44:48;3.63;;;1.80;;
7406;SDS011;3745;56.964;24.128;2023-05-07T08:47:18;3.05;;;1.58;;
7406;SDS011;3745;56.964;24.128;2023-05-07T08:49:44;1.85;;;1.45;;
7406;SDS011;3745;56.964;24.128;2023-05-07T08:52:14;1.90;;;1.80;;
7406;SDS011;3745;56.964;24.128;2023-05-07T08:54:40;3.22;;;1.75;;
7406;SDS011;3745;56.964;24.128;2023-05-07T08:57:09;2.05;;;1.70;;
7406;SDS011;3745;56.964;24.128;2023-05-07T08:59:34;4.50;;;2.00;;
7406;SDS011;3745;56.964;24.128;2023-05-07T09:02:01;2.05;;;1.70;;
7406;SDS011;3745;56.964;24.128;2023-05-07T09:04:34;2.20;;;1.63;;
7406;SDS011;3745;56.964;24.128;2023-05-07T09:07:00;1.85;;;1.75;;
7406;SDS011;3745;56.964;24.128;2023-05-07T09:09:32;1.50;;;1.50;;
7406;SDS011;3745;56.964;24.128;2023-05-07T09:11:58;1.75;;;1.67;;
7406;SDS011;3745;56.964;24.128;2023-05-07T09:14:24;1.90;;;1.80;;
7406;SDS011;3745;56.964;24.128;2023-05-07T09:16:53;1.80;;;1.70;;
7406;SDS011;3745;56.964;24.128;2023-05-07T09:19:25;1.90;;;1.80;;
7406;SDS011;3745;56.964;24.128;2023-05-07T09:22:02;1.77;;;1.58;;
7406;SDS011;3745;56.964;24.128;2023-05-07T09:24:28;2.13;;;1.98;;
7406;SDS011;3745;56.964;24.128;2023-05-07T09:26:59;2.20;;;2.00;;
7406;SDS011;3745;56.964;24.128;2023-05-07T09:29:26;1.90;;;1.80;;
7406;SDS011;3745;56.964;24.128;2023-05-07T09:31:54;1.75;;;1.65;;
7406;SDS011;3745;56.964;24.128;2023-05-07T09:34:20;2.38;;;1.90;;
7406;SDS011;3745;56.964;24.128;2023-05-07T09:36:46;1.70;;;1.60;;
7406;SDS011;3745;56.964;24.128;2023-05-07T09:39:12;2.00;;;1.90;;
7406;SDS011;3745;56.964;24.128;2023-05-07T09:41:44;2.38;;;1.95;;
7406;SDS011;3745;56.964;24.128;2023-05-07T09:44:14;2.10;;;1.98;;
7406;SDS011;3745;56.964;24.128;2023-05-07T09:46:41;2.00;;;1.90;;
7406;SDS011;3745;56.964;24.128;2023-05-07T09:49:08;2.10;;;1.92;;
7406;SDS011;3745;56.964;24.128;2023-05-07T09:51:47;2.20;;;1.92;;
7406;SDS011;3745;56.964;24.128;2023-05-07T09:54:17;4.72;;;1.80;;
7406;SDS011;3745;56.964;24.128;2023-05-07T09:56:47;1.60;;;1.55;;
7406;SDS011;3745;56.964;24.128;2023-05-07T09:59:14;1.92;;;1.83;;
7406;SDS011;3745;56.964;24.128;2023-05-07T10:01:42;1.83;;;1.73;;
7406;SDS011;3745;56.964;24.128;2023-05-07T10:04:12;1.83;;;1.80;;
7406;SDS011;3745;56.964;24.128;2023-05-07T10:06:39;1.90;;;1.80;;
7406;SDS011;3745;56.964;24.128;2023-05-07T10:09:06;2.80;;;1.98;;
7406;SDS011;3745;56.964;24.128;2023-05-07T10:11:38;2.53;;;2.05;;
7406;SDS011;3745;56.964;24.128;2023-05-07T10:14:06;2.15;;;2.05;;
7406;SDS011;3745;56.964;24.128;2023-05-07T10:16:34;2.15;;;1.95;;
7406;SDS011;3745;56.964;24.128;2023-05-07T10:19:05;3.60;;;2.28;;
7406;SDS011;3745;56.964;24.128;2023-05-07T10:21:38;2.17;;;2.08;;
7406;SDS011;3745;56.964;24.128;2023-05-07T10:24:10;4.50;;;2.17;;
7406;SDS011;3745;56.964;24.128;2023-05-07T10:26:53;3.65;;;2.33;;
7406;SDS011;3745;56.964;24.128;2023-05-07T10:31:56;3.33;;;1.80;;
7406;SDS011;3745;56.964;24.128;2023-05-07T10:34:37;4.93;;;2.00;;
7406;SDS011;3745;56.964;24.128;2023-05-07T10:37:09;2.60;;;1.67;;
7406;SDS011;3745;56.964;24.128;2023-05-07T10:39:38;3.30;;;2.00;;
7406;SDS011;3745;56.964;24.128;2023-05-07T10:42:12;2.05;;;1.85;;
7406;SDS011;3745;56.964;24.128;2023-05-07T10:44:38;1.98;;;1.70;;
7406;SDS011;3745;56.964;24.128;2023-05-07T10:47:08;1.90;;;1.80;;
7406;SDS011;3745;56.964;24.128;2023-05-07T10:52:14;2.17;;;2.08;;
7406;SDS011;3745;56.964;24.128;2023-05-07T10:54:44;2.60;;;2.20;;
7406;SDS011;3745;56.964;24.128;2023-05-07T11:00:02;4.32;;;2.00;;
7406;SDS011;3745;56.964;24.128;2023-05-07T11:03:04;2.28;;;2.08;;
7406;SDS011;3745;56.964;24.128;2023-05-07T11:05:32;4.05;;;1.90;;
7406;SDS011;3745;56.964;24.128;2023-05-07T11:08:02;2.50;;;2.30;;
7406;SDS011;3745;56.964;24.128;2023-05-07T11:13:17;2.33;;;2.03;;
7406;SDS011;3745;56.964;24.128;2023-05-07T11:15:46;2.13;;;2.03;;
7406;SDS011;3745;56.964;24.128;2023-05-07T11:18:14;2.40;;;2.20;;
7406;SDS011;3745;56.964;24.128;2023-05-07T11:26:00;2.55;;;1.95;;
7406;SDS011;3745;56.964;24.128;2023-05-07T11:28:30;5.07;;;2.58;;
7406;SDS011;3745;56.964;24.128;2023-05-07T11:31:01;1.90;;;1.80;;
7406;SDS011;3745;56.964;24.128;2023-05-07T11:33:30;2.30;;;2.20;;
7406;SDS011;3745;56.964;24.128;2023-05-07T11:35:57;2.08;;;1.98;;
7406;SDS011;3745;56.964;24.128;2023-05-07T11:38:23;2.00;;;1.90;;
7406;SDS011;3745;56.964;24.128;2023-05-07T11:40:56;3.33;;;2.13;;
7406;SDS011;3745;56.964;24.128;2023-05-07T11:43:27;2.33;;;2.22;;
7406;SDS011;3745;56.964;24.128;2023-05-07T11:45:53;1.70;;;1.63;;
7406;SDS011;3745;56.964;24.128;2023-05-07T11:48:20;3.33;;;2.20;;
7406;SDS011;3745;56.964;24.128;2023-05-07T11:50:54;3.15;;;2.00;;
7406;SDS011;3745;56.964;24.128;2023-05-07T11:53:37;2.05;;;1.95;;
7406;SDS011;3745;56.964;24.128;2023-05-07T11:56:14;1.98;;;1.88;;
7406;SDS011;3745;56.964;24.128;2023-05-07T11:58:42;2.10;;;1.90;;
7406;SDS011;3745;56.964;24.128;2023-05-07T12:01:10;3.72;;;2.20;;
7406;SDS011;3745;56.964;24.128;2023-05-07T12:03:37;2.13;;;2.03;;
7406;SDS011;3745;56.964;24.128;2023-05-07T12:06:16;2.38;;;1.83;;
7406;SDS011;3745;56.964;24.128;2023-05-07T12:08:45;7.20;;;2.45;;
7406;SDS011;3745;56.964;24.128;2023-05-07T12:11:29;2.33;;;2.10;;
7406;SDS011;3745;56.964;24.128;2023-05-07T12:13:57;2.10;;;1.85;;
7406;SDS011;3745;56.964;24.128;2023-05-07T12:16:23;2.40;;;2.30;;
7406;SDS011;3745;56.964;24.128;2023-05-07T12:18:49;2.33;;;1.80;;
7406;SDS011;3745;56.964;24.128;2023-05-07T12:21:17;2.35;;;2.15;;
7406;SDS011;3745;56.964;24.128;2023-05-07T12:23:43;2.00;;;1.90;;
7406;SDS011;3745;56.964;24.128;2023-05-07T12:26:10;2.38;;;1.98;;
7406;SDS011;3745;56.964;24.128;2023-05-07T12:28:36;3.03;;;1.90;;
7406;SDS011;3745;56.964;24.128;2023-05-07T12:31:04;4.50;;;1.70;;
7406;SDS011;3745;56.964;24.128;2023-05-07T12:33:33;2.17;;;1.98;;
7406;SDS011;3745;56.964;24.128;2023-05-07T12:36:02;3.80;;;1.90;;
7406;SDS011;3745;56.964;24.128;2023-05-07T12:38:34;1.92;;;1.77;;
7406;SDS011;3745;56.964;24.128;2023-05-07T12:41:01;3.70;;;1.90;;
7406;SDS011;3745;56.964;24.128;2023-05-07T12:43:28;4.40;;;1.60;;
7406;SDS011;3745;56.964;24.128;2023-05-07T12:45:55;2.75;;;1.80;;
7406;SDS011;3745;56.964;24.128;2023-05-07T12:48:22;1.92;;;1.75;;
7406;SDS011;3745;56.964;24.128;2023-05-07T12:50:49;2.15;;;2.05;;
7406;SDS011;3745;56.964;24.128;2023-05-07T12:53:20;5.75;;;2.45;;
7406;SDS011;3745;56.964;24.128;2023-05-07T12:55:48;2.17;;;2.08;;
7406;SDS011;3745;56.964;24.128;2023-05-07T12:58:30;2.30;;;2.08;;
7406;SDS011;3745;56.964;24.128;2023-05-07T13:01:07;5.07;;;1.80;;
7406;SDS011;3745;56.964;24.128;2023-05-07T13:03:35;3.58;;;2.30;;
7406;SDS011;3745;56.964;24.128;2023-05-07T13:06:06;3.53;;;2.33;;
7406;SDS011;3745;56.964;24.128;2023-05-07T13:08:39;2.17;;;2.08;;
7406;SDS011;3745;56.964;24.128;2023-05-07T13:11:10;5.25;;;2.30;;
7406;SDS011;3745;56.964;24.128;2023-05-07T13:13:37;2.38;;;2.28;;
7406;SDS011;3745;56.964;24.128;2023-05-07T13:16:05;2.55;;;2.10;;
7406;SDS011;3745;56.964;24.128;2023-05-07T13:18:33;2.65;;;2.08;;
7406;SDS011;3745;56.964;24.128;2023-05-07T13:20:59;2.95;;;1.98;;
7406;SDS011;3745;56.964;24.128;2023-05-07T13:23:26;1.98;;;1.83;;
7406;SDS011;3745;56.964;24.128;2023-05-07T13:25:52;2.33;;;2.13;;
7406;SDS011;3745;56.964;24.128;2023-05-07T13:28:24;2.58;;;2.15;;
7406;SDS011;3745;56.964;24.128;2023-05-07T13:30:53;3.63;;;1.90;;
7406;SDS011;3745;56.964;24.128;2023-05-07T13:33:19;2.40;;;2.20;;
7406;SDS011;3745;56.964;24.128;2023-05-07T13:35:45;2.45;;;2.10;;
7406;SDS011;3745;56.964;24.128;2023-05-07T13:38:14;2.03;;;1.92;;
7406;SDS011;3745;56.964;24.128;2023-05-07T13:40:43;4.63;;;1.80;;
7406;SDS011;3745;56.964;24.128;2023-05-07T13:43:09;4.57;;;1.77;;
7406;SDS011;3745;56.964;24.128;2023-05-07T13:45:35;2.00;;;1.80;;
7406;SDS011;3745;56.964;24.128;2023-05-07T13:48:01;1.92;;;1.83;;
7406;SDS011;3745;56.964;24.128;2023-05-07T13:50:27;2.00;;;1.90;;
7406;SDS011;3745;56.964;24.128;2023-05-07T13:52:56;2.85;;;2.08;;
7406;SDS011;3745;56.964;24.128;2023-05-07T13:55:22;1.90;;;1.80;;
7406;SDS011;3745;56.964;24.128;2023-05-07T13:57:56;2.00;;;1.90;;
7406;SDS011;3745;56.964;24.128;2023-05-07T14:00:24;2.70;;;2.10;;
7406;SDS011;3745;56.964;24.128;2023-05-07T14:02:51;2.00;;;1.88;;
7406;SDS011;3745;56.964;24.128;2023-05-07T14:05:17;2.50;;;2.08;;
7406;SDS011;3745;56.964;24.128;2023-05-07T14:07:43;2.47;;;2.20;;
7406;SDS011;3745;56.964;24.128;2023-05-07T14:10:09;4.45;;;2.20;;
7406;SDS011;3745;56.964;24.128;2023-05-07T14:12:36;4.95;;;2.25;;
7406;SDS011;3745;56.964;24.128;2023-05-07T14:15:02;1.85;;;1.75;;
7406;SDS011;3745;56.964;24.128;2023-05-07T14:17:28;3.42;;;1.98;;
7406;SDS011;3745;56.964;24.128;2023-05-07T14:19:54;1.98;;;1.70;;
7406;SDS011;3745;56.964;24.128;2023-05-07T14:22:20;2.72;;;1.80;;
7406;SDS011;3745;56.964;24.128;2023-05-07T14:24:50;2.40;;;2.20;;
7406;SDS011;3745;56.964;24.128;2023-05-07T14:27:16;4.72;;;2.10;;
7406;SDS011;3745;56.964;24.128;2023-05-07T14:29:45;2.33;;;2.22;;
7406;SDS011;3745;56.964;24.128;2023-05-07T14:32:16;4.03;;;2.22;;
7406;SDS011;3745;56.964;24.128;2023-05-07T14:34:45;2.28;;;2.00;;
7406;SDS011;3745;56.964;24.128;2023-05-07T14:37:14;2.17;;;1.90;;
7406;SDS011;3745;56.964;24.128;2023-05-07T14:39:42;5.13;;;2.28;;
7406;SDS011;3745;56.964;24.128;2023-05-07T14:42:08;1.80;;;1.70;;
7406;SDS011;3745;56.964;24.128;2023-05-07T14:44:35;2.63;;;2.10;;
7406;SDS011;3745;56.964;24.128;2023-05-07T14:47:01;2.00;;;1.90;;
7406;SDS011;3745;56.964;24.128;2023-05-07T14:49:27;2.53;;;1.75;;
7406;SDS011;3745;56.964;24.128;2023-05-07T14:51:52;2.65;;;1.73;;
7406;SDS011;3745;56.964;24.128;2023-05-07T14:54:19;5.32;;;1.80;;
7406;SDS011;3745;56.964;24.128;2023-05-07T14:56:45;3.72;;;1.65;;
7406;SDS011;3745;56.964;24.128;2023-05-07T14:59:11;1.85;;;1.75;;
7406;SDS011;3745;56.964;24.128;2023-05-07T15:01:37;2.50;;;1.85;;
7406;SDS011;3745;56.964;24.128;2023-05-07T15:04:05;4.68;;;2.00;;
7406;SDS011;3745;56.964;24.128;2023-05-07T15:06:33;1.85;;;1.83;;
7406;SDS011;3745;56.964;24.128;2023-05-07T15:09:02;3.25;;;1.90;;
7406;SDS011;3745;56.964;24.128;2023-05-07T15:11:28;3.95;;;2.10;;
7406;SDS011;3745;56.964;24.128;2023-05-07T15:13:53;1.85;;;1.75;;
7406;SDS011;3745;56.964;24.128;2023-05-07T15:16:19;3.08;;;1.60;;